sensor_id;sensor_type;location;lat;lon;timestamp;pressure;altitude;pressure_sealevel;temperature;humidity
39954;BME280;25631;51.516;-0.470;2023-03-31T00:02:26;99172.89;;;9.52;44.79
39954;BME280;25631;51.516;-0.470;2023-03-31T00:05:03;99163.65;;;9.63;44.81
39954;BME280;25631;51.516;-0.470;2023-03-31T00:07:39;99158.87;;;9.97;44.65
39954;BME280;25631;51.516;-0.470;2023-03-31T00:10:16;99152.02;;;9.77;44.51
39954;BME280;25631;51.516;-0.470;2023-03-31T00:12:52;99141.98;;;9.73;44.52
39954;BME280;25631;51.516;-0.470;2023-03-31T00:15:29;99137.89;;;9.60;44.65
39954;BME280;25631;51.516;-0.470;2023-03-31T00:18:05;99132.27;;;9.56;44.86
39954;BME280;25631;51.516;-0.470;2023-03-31T00:20:42;99129.63;;;9.49;44.79
39954;BME280;25631;51.516;-0.470;2023-03-31T00:23:19;99120.32;;;9.38;44.99
39954;BME280;25631;51.516;-0.470;2023-03-31T00:25:55;99107.96;;;9.48;45.01
39954;BME280;25631;51.516;-0.470;2023-03-31T00:28:32;99095.08;;;9.58;44.93
39954;BME280;25631;51.516;-0.470;2023-03-31T00:31:09;99089.45;;;9.64;44.84
39954;BME280;25631;51.516;-0.470;2023-03-31T00:33:45;99076.25;;;9.59;44.78
39954;BME280;25631;51.516;-0.470;2023-03-31T00:36:22;99068.05;;;9.64;45.02
39954;BME280;25631;51.516;-0.470;2023-03-31T00:39:01;99060.68;;;9.50;45.13
39954;BME280;25631;51.516;-0.470;2023-03-31T00:41:38;99041.84;;;9.50;45.06
39954;BME280;25631;51.516;-0.470;2023-03-31T00:44:17;99035.22;;;9.72;45.19
39954;BME280;25631;51.516;-0.470;2023-03-31T00:46:55;99027.12;;;9.65;45.24
39954;BME280;25631;51.516;-0.470;2023-03-31T00:49:34;99020.41;;;9.05;45.29
39954;BME280;25631;51.516;-0.470;2023-03-31T00:52:14;99007.02;;;9.29;45.31
39954;BME280;25631;51.516;-0.470;2023-03-31T00:54:54;98997.12;;;9.66;45.47
39954;BME280;25631;51.516;-0.470;2023-03-31T00:57:33;98990.94;;;9.57;45.45
39954;BME280;25631;51.516;-0.470;2023-03-31T01:00:12;98986.93;;;9.06;45.65
39954;BME280;25631;51.516;-0.470;2023-03-31T01:02:53;98978.42;;;9.43;45.57
39954;BME280;25631;51.516;-0.470;2023-03-31T01:05:33;98965.22;;;9.05;45.55
39954;BME280;25631;51.516;-0.470;2023-03-31T01:08:11;98954.49;;;9.37;45.75
39954;BME280;25631;51.516;-0.470;2023-03-31T01:10:52;98946.75;;;9.60;45.58
39954;BME280;25631;51.516;-0.470;2023-03-31T01:13:29;98935.99;;;9.29;45.57
39954;BME280;25631;51.516;-0.470;2023-03-31T01:16:06;98932.94;;;9.67;45.49
39954;BME280;25631;51.516;-0.470;2023-03-31T01:18:43;98918.13;;;9.69;45.42
39954;BME280;25631;51.516;-0.470;2023-03-31T01:22:50;98913.24;;;9.17;45.65
39954;BME280;25631;51.516;-0.470;2023-03-31T01:25:45;98894.56;;;9.33;45.77
39954;BME280;25631;51.516;-0.470;2023-03-31T01:28:35;98888.13;;;9.48;45.77
39954;BME280;25631;51.516;-0.470;2023-03-31T01:36:45;98863.78;;;9.74;45.77
39954;BME280;25631;51.516;-0.470;2023-03-31T01:40:06;98853.84;;;9.16;45.60
39954;BME280;25631;51.516;-0.470;2023-03-31T01:42:52;98839.33;;;9.74;45.56
39954;BME280;25631;51.516;-0.470;2023-03-31T01:45:43;98832.97;;;9.98;45.59
39954;BME280;25631;51.516;-0.470;2023-03-31T01:48:34;98822.21;;;9.31;45.72
39954;BME280;25631;51.516;-0.470;2023-03-31T01:51:17;98815.85;;;9.38;45.89
39954;BME280;25631;51.516;-0.470;2023-03-31T01:54:00;98805.39;;;9.50;45.93
39954;BME280;25631;51.516;-0.470;2023-03-31T01:56:42;98798.12;;;9.56;46.03
39954;BME280;25631;51.516;-0.470;2023-03-31T01:59:26;98789.77;;;9.66;46.00
39954;BME280;25631;51.516;-0.470;2023-03-31T02:02:06;98781.63;;;9.88;45.91
39954;BME280;25631;51.516;-0.470;2023-03-31T02:04:47;98771.38;;;9.63;45.97
39954;BME280;25631;51.516;-0.470;2023-03-31T02:07:28;98766.45;;;9.42;46.13
39954;BME280;25631;51.516;-0.470;2023-03-31T02:10:09;98756.26;;;9.57;46.13
39954;BME280;25631;51.516;-0.470;2023-03-31T02:12:47;98746.88;;;9.73;46.09
39954;BME280;25631;51.516;-0.470;2023-03-31T02:15:28;98739.03;;;10.05;46.09
39954;BME280;25631;51.516;-0.470;2023-03-31T02:18:10;98731.77;;;9.87;46.30
39954;BME280;25631;51.516;-0.470;2023-03-31T02:20:49;98721.92;;;9.77;46.33
39954;BME280;25631;51.516;-0.470;2023-03-31T02:23:28;98715.96;;;9.50;46.42
39954;BME280;25631;51.516;-0.470;2023-03-31T02:26:10;98702.25;;;9.41;46.35
39954;BME280;25631;51.516;-0.470;2023-03-31T02:28:48;98698.93;;;9.62;46.48
39954;BME280;25631;51.516;-0.470;2023-03-31T02:31:28;98687.93;;;9.55;46.65
39954;BME280;25631;51.516;-0.470;2023-03-31T02:34:09;98682.73;;;9.48;46.56
39954;BME280;25631;51.516;-0.470;2023-03-31T02:36:45;98671.44;;;9.56;46.58
39954;BME280;25631;51.516;-0.470;2023-03-31T02:39:25;98665.54;;;9.45;46.63
39954;BME280;25631;51.516;-0.470;2023-03-31T02:42:03;98655.01;;;9.25;46.67
39954;BME280;25631;51.516;-0.470;2023-03-31T02:44:40;98645.66;;;9.59;46.53
39954;BME280;25631;51.516;-0.470;2023-03-31T02:47:19;98637.56;;;9.13;46.77
39954;BME280;25631;51.516;-0.470;2023-03-31T02:49:59;98633.80;;;9.31;46.65
39954;BME280;25631;51.516;-0.470;2023-03-31T02:52:48;98626.64;;;9.32;46.65
39954;BME280;25631;51.516;-0.470;2023-03-31T02:55:45;98620.12;;;9.22;46.71
39954;BME280;25631;51.516;-0.470;2023-03-31T02:58:35;98610.34;;;9.33;46.57
39954;BME280;25631;51.516;-0.470;2023-03-31T03:01:26;98607.57;;;9.54;46.51
39954;BME280;25631;51.516;-0.470;2023-03-31T03:04:23;98591.17;;;9.55;46.43
39954;BME280;25631;51.516;-0.470;2023-03-31T03:07:12;98579.18;;;9.26;46.47
39954;BME280;25631;51.516;-0.470;2023-03-31T03:09:59;98575.44;;;9.13;46.62
39954;BME280;25631;51.516;-0.470;2023-03-31T03:12:44;98560.94;;;9.22;46.67
39954;BME280;25631;51.516;-0.470;2023-03-31T03:15:25;98552.66;;;9.31;46.55
39954;BME280;25631;51.516;-0.470;2023-03-31T03:18:05;98545.97;;;9.40;46.42
39954;BME280;25631;51.516;-0.470;2023-03-31T03:20:42;98537.45;;;9.44;46.40
39954;BME280;25631;51.516;-0.470;2023-03-31T03:23:19;98528.92;;;9.22;46.32
39954;BME280;25631;51.516;-0.470;2023-03-31T03:25:56;98523.63;;;9.28;46.30
39954;BME280;25631;51.516;-0.470;2023-03-31T03:28:32;98520.83;;;9.43;46.52
39954;BME280;25631;51.516;-0.470;2023-03-31T03:31:09;98514.70;;;9.24;46.57
39954;BME280;25631;51.516;-0.470;2023-03-31T03:33:45;98509.01;;;9.45;46.58
39954;BME280;25631;51.516;-0.470;2023-03-31T03:36:22;98502.80;;;8.89;46.81
39954;BME280;25631;51.516;-0.470;2023-03-31T03:38:58;98500.88;;;8.99;46.74
39954;BME280;25631;51.516;-0.470;2023-03-31T03:41:35;98493.75;;;9.11;46.81
39954;BME280;25631;51.516;-0.470;2023-03-31T03:44:11;98489.54;;;8.47;47.08
39954;BME280;25631;51.516;-0.470;2023-03-31T03:46:48;98474.63;;;8.99;46.91
39954;BME280;25631;51.516;-0.470;2023-03-31T03:49:24;98478.54;;;8.80;46.75
39954;BME280;25631;51.516;-0.470;2023-03-31T03:52:01;98469.99;;;8.87;46.91
39954;BME280;25631;51.516;-0.470;2023-03-31T03:54:38;98465.53;;;8.90;46.68
39954;BME280;25631;51.516;-0.470;2023-03-31T03:57:14;98458.67;;;8.91;46.59
39954;BME280;25631;51.516;-0.470;2023-03-31T03:59:51;98450.21;;;8.29;46.56
39954;BME280;25631;51.516;-0.470;2023-03-31T04:02:27;98437.51;;;8.39;46.47
39954;BME280;25631;51.516;-0.470;2023-03-31T04:05:04;98426.47;;;9.01;46.30
39954;BME280;25631;51.516;-0.470;2023-03-31T04:07:40;98424.03;;;8.86;46.15
39954;BME280;25631;51.516;-0.470;2023-03-31T04:10:17;98414.30;;;8.26;46.23
39954;BME280;25631;51.516;-0.470;2023-03-31T04:12:54;98409.98;;;8.97;45.96
39954;BME280;25631;51.516;-0.470;2023-03-31T04:15:30;98404.18;;;9.06;46.05
39954;BME280;25631;51.516;-0.470;2023-03-31T04:18:08;98400.13;;;8.87;46.00
39954;BME280;25631;51.516;-0.470;2023-03-31T04:20:45;98393.05;;;8.69;46.04
39954;BME280;25631;51.516;-0.470;2023-03-31T04:23:21;98388.30;;;8.73;46.01
39954;BME280;25631;51.516;-0.470;2023-03-31T04:25:59;98374.30;;;8.71;46.09
39954;BME280;25631;51.516;-0.470;2023-03-31T04:28:36;98369.96;;;9.14;45.96
39954;BME280;25631;51.516;-0.470;2023-03-31T04:31:13;98362.60;;;8.80;46.14
39954;BME280;25631;51.516;-0.470;2023-03-31T04:33:50;98353.71;;;8.67;46.10
39954;BME280;25631;51.516;-0.470;2023-03-31T04:36:27;98350.40;;;8.86;46.08
39954;BME280;25631;51.516;-0.470;2023-03-31T04:39:03;98339.89;;;8.95;46.12
39954;BME280;25631;51.516;-0.470;2023-03-31T04:41:40;98339.22;;;8.92;46.20
39954;BME280;25631;51.516;-0.470;2023-03-31T04:44:16;98336.82;;;8.62;46.18
39954;BME280;25631;51.516;-0.470;2023-03-31T04:46:53;98332.04;;;8.73;46.14
39954;BME280;25631;51.516;-0.470;2023-03-31T04:49:30;98328.25;;;8.84;46.39
39954;BME280;25631;51.516;-0.470;2023-03-31T04:52:06;98322.59;;;8.67;46.51
39954;BME280;25631;51.516;-0.470;2023-03-31T04:54:43;98318.60;;;8.90;46.47
39954;BME280;25631;51.516;-0.470;2023-03-31T04:57:19;98311.34;;;8.83;46.51
39954;BME280;25631;51.516;-0.470;2023-03-31T04:59:56;98306.39;;;8.83;46.38
39954;BME280;25631;51.516;-0.470;2023-03-31T05:02:32;98301.19;;;7.74;46.38
39954;BME280;25631;51.516;-0.470;2023-03-31T05:05:09;98292.07;;;8.49;46.46
39954;BME280;25631;51.516;-0.470;2023-03-31T05:07:45;98284.15;;;8.75;46.42
39954;BME280;25631;51.516;-0.470;2023-03-31T05:10:22;98279.02;;;8.06;46.33
39954;BME280;25631;51.516;-0.470;2023-03-31T05:12:58;98269.50;;;8.68;46.19
39954;BME280;25631;51.516;-0.470;2023-03-31T05:15:36;98273.29;;;8.50;46.32
39954;BME280;25631;51.516;-0.470;2023-03-31T05:18:13;98266.13;;;8.47;46.14
39954;BME280;25631;51.516;-0.470;2023-03-31T05:20:50;98265.49;;;8.70;46.06
39954;BME280;25631;51.516;-0.470;2023-03-31T05:23:26;98261.32;;;8.54;46.03
39954;BME280;25631;51.516;-0.470;2023-03-31T05:26:03;98259.63;;;8.87;46.04
39954;BME280;25631;51.516;-0.470;2023-03-31T05:28:40;98251.40;;;8.70;46.15
39954;BME280;25631;51.516;-0.470;2023-03-31T05:31:17;98252.37;;;8.96;46.03
39954;BME280;25631;51.516;-0.470;2023-03-31T05:33:54;98248.64;;;8.76;46.03
39954;BME280;25631;51.516;-0.470;2023-03-31T05:36:30;98251.37;;;8.92;46.34
39954;BME280;25631;51.516;-0.470;2023-03-31T05:39:06;98246.00;;;8.82;46.25
39954;BME280;25631;51.516;-0.470;2023-03-31T05:41:43;98244.49;;;8.56;46.42
39954;BME280;25631;51.516;-0.470;2023-03-31T05:44:19;98238.88;;;8.61;46.25
39954;BME280;25631;51.516;-0.470;2023-03-31T05:46:56;98234.41;;;8.88;46.24
39954;BME280;25631;51.516;-0.470;2023-03-31T05:49:32;98237.16;;;8.80;46.13
39954;BME280;25631;51.516;-0.470;2023-03-31T05:52:10;98229.12;;;8.74;46.20
39954;BME280;25631;51.516;-0.470;2023-03-31T05:54:47;98230.94;;;9.04;46.16
39954;BME280;25631;51.516;-0.470;2023-03-31T05:57:23;98230.01;;;8.36;46.65
39954;BME280;25631;51.516;-0.470;2023-03-31T06:00:00;98226.10;;;8.96;46.62
39954;BME280;25631;51.516;-0.470;2023-03-31T06:02:36;98224.42;;;8.72;46.63
39954;BME280;25631;51.516;-0.470;2023-03-31T06:05:13;98224.97;;;9.05;46.70
39954;BME280;25631;51.516;-0.470;2023-03-31T06:07:50;98223.78;;;8.86;46.59
39954;BME280;25631;51.516;-0.470;2023-03-31T06:10:26;98224.04;;;8.44;46.95
39954;BME280;25631;51.516;-0.470;2023-03-31T06:13:03;98225.55;;;8.77;46.85
39954;BME280;25631;51.516;-0.470;2023-03-31T06:15:39;98218.78;;;8.67;47.05
39954;BME280;25631;51.516;-0.470;2023-03-31T06:18:16;98217.41;;;8.05;47.36
39954;BME280;25631;51.516;-0.470;2023-03-31T06:20:53;98215.32;;;8.39;46.85
39954;BME280;25631;51.516;-0.470;2023-03-31T06:23:30;98214.93;;;8.39;47.25
39954;BME280;25631;51.516;-0.470;2023-03-31T06:26:07;98211.88;;;8.79;47.39
39954;BME280;25631;51.516;-0.470;2023-03-31T06:28:45;98207.74;;;8.80;47.29
39954;BME280;25631;51.516;-0.470;2023-03-31T06:31:23;98207.72;;;8.65;47.38
39954;BME280;25631;51.516;-0.470;2023-03-31T06:34:00;98204.97;;;8.63;47.15
39954;BME280;25631;51.516;-0.470;2023-03-31T06:36:36;98205.57;;;8.93;47.03
39954;BME280;25631;51.516;-0.470;2023-03-31T06:39:13;98207.30;;;8.89;47.23
39954;BME280;25631;51.516;-0.470;2023-03-31T06:41:49;98201.29;;;9.03;47.02
39954;BME280;25631;51.516;-0.470;2023-03-31T06:44:25;98202.22;;;8.95;47.11
39954;BME280;25631;51.516;-0.470;2023-03-31T06:47:02;98200.05;;;8.77;47.26
39954;BME280;25631;51.516;-0.470;2023-03-31T06:49:38;98198.18;;;8.72;47.19
39954;BME280;25631;51.516;-0.470;2023-03-31T06:52:15;98199.74;;;8.80;47.38
39954;BME280;25631;51.516;-0.470;2023-03-31T06:54:51;98201.21;;;8.69;47.27
39954;BME280;25631;51.516;-0.470;2023-03-31T06:57:28;98201.91;;;8.77;47.23
39954;BME280;25631;51.516;-0.470;2023-03-31T07:00:07;98194.56;;;9.10;47.18
39954;BME280;25631;51.516;-0.470;2023-03-31T07:02:43;98191.34;;;9.05;47.15
39954;BME280;25631;51.516;-0.470;2023-03-31T07:05:20;98196.24;;;8.51;47.15
39954;BME280;25631;51.516;-0.470;2023-03-31T07:07:58;98198.18;;;9.01;47.08
39954;BME280;25631;51.516;-0.470;2023-03-31T07:10:35;98187.10;;;8.76;46.97
39954;BME280;25631;51.516;-0.470;2023-03-31T07:13:11;98184.93;;;8.91;46.87
39954;BME280;25631;51.516;-0.470;2023-03-31T07:15:48;98182.85;;;9.13;46.86
39954;BME280;25631;51.516;-0.470;2023-03-31T07:18:25;98183.60;;;9.08;46.76
39954;BME280;25631;51.516;-0.470;2023-03-31T07:21:02;98187.35;;;8.94;46.74
39954;BME280;25631;51.516;-0.470;2023-03-31T07:23:39;98186.22;;;9.07;46.86
39954;BME280;25631;51.516;-0.470;2023-03-31T07:26:15;98188.28;;;8.76;47.14
39954;BME280;25631;51.516;-0.470;2023-03-31T07:28:53;98192.47;;;9.03;47.05
39954;BME280;25631;51.516;-0.470;2023-03-31T07:31:29;98180.79;;;9.06;47.02
39954;BME280;25631;51.516;-0.470;2023-03-31T07:34:05;98183.01;;;9.08;46.83
39954;BME280;25631;51.516;-0.470;2023-03-31T07:36:42;98180.05;;;8.81;46.93
39954;BME280;25631;51.516;-0.470;2023-03-31T07:39:18;98178.61;;;8.82;46.69
39954;BME280;25631;51.516;-0.470;2023-03-31T07:41:55;98175.59;;;9.01;46.80
39954;BME280;25631;51.516;-0.470;2023-03-31T07:44:32;98176.19;;;9.00;46.84
39954;BME280;25631;51.516;-0.470;2023-03-31T07:47:09;98176.11;;;8.98;46.91
39954;BME280;25631;51.516;-0.470;2023-03-31T07:49:45;98175.20;;;9.17;46.80
39954;BME280;25631;51.516;-0.470;2023-03-31T07:52:22;98174.64;;;8.95;46.69
39954;BME280;25631;51.516;-0.470;2023-03-31T07:54:59;98173.41;;;8.93;46.77
39954;BME280;25631;51.516;-0.470;2023-03-31T07:57:36;98172.71;;;9.05;46.60
39954;BME280;25631;51.516;-0.470;2023-03-31T08:00:14;98170.80;;;8.89;46.83
39954;BME280;25631;51.516;-0.470;2023-03-31T08:02:51;98170.27;;;8.74;46.95
39954;BME280;25631;51.516;-0.470;2023-03-31T08:05:27;98170.77;;;9.38;46.85
39954;BME280;25631;51.516;-0.470;2023-03-31T08:08:04;98168.06;;;9.13;46.80
39954;BME280;25631;51.516;-0.470;2023-03-31T08:10:41;98168.14;;;9.12;46.96
39954;BME280;25631;51.516;-0.470;2023-03-31T08:13:18;98166.48;;;9.25;47.22
39954;BME280;25631;51.516;-0.470;2023-03-31T08:15:54;98165.45;;;8.80;47.29
39954;BME280;25631;51.516;-0.470;2023-03-31T08:18:31;98168.47;;;8.84;47.17
39954;BME280;25631;51.516;-0.470;2023-03-31T08:21:07;98165.16;;;8.97;47.19
39954;BME280;25631;51.516;-0.470;2023-03-31T08:23:44;98164.53;;;8.30;47.92
39954;BME280;25631;51.516;-0.470;2023-03-31T08:26:21;98160.45;;;8.98;47.42
39954;BME280;25631;51.516;-0.470;2023-03-31T08:28:57;98158.77;;;8.41;47.54
39954;BME280;25631;51.516;-0.470;2023-03-31T08:31:33;98156.93;;;8.41;47.77
39954;BME280;25631;51.516;-0.470;2023-03-31T08:34:10;98154.45;;;8.82;47.62
39954;BME280;25631;51.516;-0.470;2023-03-31T08:36:46;98155.66;;;8.73;47.54
39954;BME280;25631;51.516;-0.470;2023-03-31T08:39:23;98153.18;;;9.03;47.49
39954;BME280;25631;51.516;-0.470;2023-03-31T08:42:02;98146.47;;;9.08;47.35
39954;BME280;25631;51.516;-0.470;2023-03-31T08:44:43;98150.81;;;8.70;47.54
39954;BME280;25631;51.516;-0.470;2023-03-31T08:47:22;98144.65;;;8.41;47.92
39954;BME280;25631;51.516;-0.470;2023-03-31T08:50:05;98148.19;;;8.85;47.74
39954;BME280;25631;51.516;-0.470;2023-03-31T08:52:46;98142.05;;;8.64;47.71
39954;BME280;25631;51.516;-0.470;2023-03-31T08:55:26;98136.85;;;8.54;47.62
39954;BME280;25631;51.516;-0.470;2023-03-31T08:58:11;98133.57;;;8.85;47.73
39954;BME280;25631;51.516;-0.470;2023-03-31T09:00:52;98135.37;;;8.61;47.68
39954;BME280;25631;51.516;-0.470;2023-03-31T09:03:39;98126.05;;;8.95;47.49
39954;BME280;25631;51.516;-0.470;2023-03-31T09:06:22;98130.02;;;8.98;47.55
39954;BME280;25631;51.516;-0.470;2023-03-31T09:09:02;98130.16;;;8.54;47.36
39954;BME280;25631;51.516;-0.470;2023-03-31T09:11:49;98132.52;;;9.03;47.45
39954;BME280;25631;51.516;-0.470;2023-03-31T09:14:31;98130.55;;;8.48;47.62
39954;BME280;25631;51.516;-0.470;2023-03-31T09:17:19;98120.34;;;8.81;47.48
39954;BME280;25631;51.516;-0.470;2023-03-31T09:19:58;98117.22;;;9.27;47.37
39954;BME280;25631;51.516;-0.470;2023-03-31T09:22:40;98123.79;;;8.93;47.47
39954;BME280;25631;51.516;-0.470;2023-03-31T09:25:20;98125.31;;;8.90;47.70
39954;BME280;25631;51.516;-0.470;2023-03-31T09:28:01;98116.08;;;9.05;47.59
39954;BME280;25631;51.516;-0.470;2023-03-31T09:30:39;98117.78;;;8.66;47.88
39954;BME280;25631;51.516;-0.470;2023-03-31T09:33:18;98112.53;;;8.58;47.51
39954;BME280;25631;51.516;-0.470;2023-03-31T09:35:57;98116.48;;;9.12;47.41
39954;BME280;25631;51.516;-0.470;2023-03-31T09:38:34;98120.90;;;8.92;47.57
39954;BME280;25631;51.516;-0.470;2023-03-31T09:41:13;98118.57;;;9.05;47.57
39954;BME280;25631;51.516;-0.470;2023-03-31T09:43:50;98115.38;;;9.27;47.28
39954;BME280;25631;51.516;-0.470;2023-03-31T09:46:30;98113.51;;;9.10;47.30
39954;BME280;25631;51.516;-0.470;2023-03-31T09:49:12;98129.25;;;8.93;47.48
39954;BME280;25631;51.516;-0.470;2023-03-31T09:52:00;98130.74;;;8.48;48.22
39954;BME280;25631;51.516;-0.470;2023-03-31T09:54:43;98116.64;;;8.82;47.59
39954;BME280;25631;51.516;-0.470;2023-03-31T09:57:25;98122.65;;;8.38;48.52
39954;BME280;25631;51.516;-0.470;2023-03-31T10:00:05;98119.32;;;8.46;48.51
39954;BME280;25631;51.516;-0.470;2023-03-31T10:02:43;98127.73;;;7.91;49.10
39954;BME280;25631;51.516;-0.470;2023-03-31T10:05:28;98125.70;;;8.31;48.96
39954;BME280;25631;51.516;-0.470;2023-03-31T10:08:26;98129.14;;;8.42;48.88
39954;BME280;25631;51.516;-0.470;2023-03-31T10:11:09;98141.85;;;8.01;49.58
39954;BME280;25631;51.516;-0.470;2023-03-31T10:13:48;98142.46;;;8.08;49.92
39954;BME280;25631;51.516;-0.470;2023-03-31T10:16:30;98144.06;;;8.22;49.75
39954;BME280;25631;51.516;-0.470;2023-03-31T10:19:20;98150.85;;;8.93;49.39
39954;BME280;25631;51.516;-0.470;2023-03-31T10:21:58;98154.84;;;8.66;49.18
39954;BME280;25631;51.516;-0.470;2023-03-31T10:24:37;98151.25;;;8.50;49.06
39954;BME280;25631;51.516;-0.470;2023-03-31T10:27:20;98162.86;;;8.88;48.94
39954;BME280;25631;51.516;-0.470;2023-03-31T10:29:59;98167.67;;;8.81;49.15
39954;BME280;25631;51.516;-0.470;2023-03-31T10:32:38;98175.85;;;8.85;48.76
39954;BME280;25631;51.516;-0.470;2023-03-31T10:35:23;98177.65;;;8.85;48.20
39954;BME280;25631;51.516;-0.470;2023-03-31T10:38:04;98179.04;;;9.18;48.15
39954;BME280;25631;51.516;-0.470;2023-03-31T10:40:48;98178.76;;;9.59;47.94
39954;BME280;25631;51.516;-0.470;2023-03-31T10:43:27;98187.72;;;9.47;47.80
39954;BME280;25631;51.516;-0.470;2023-03-31T10:46:05;98187.24;;;9.23;47.59
39954;BME280;25631;51.516;-0.470;2023-03-31T10:48:42;98186.46;;;9.30;47.49
39954;BME280;25631;51.516;-0.470;2023-03-31T10:51:21;98193.13;;;9.46;47.32
39954;BME280;25631;51.516;-0.470;2023-03-31T10:54:01;98199.58;;;9.45;47.52
39954;BME280;25631;51.516;-0.470;2023-03-31T10:56:39;98197.74;;;9.65;47.49
39954;BME280;25631;51.516;-0.470;2023-03-31T10:59:27;98202.36;;;9.51;47.66
39954;BME280;25631;51.516;-0.470;2023-03-31T11:02:28;98213.46;;;9.47;47.91
39954;BME280;25631;51.516;-0.470;2023-03-31T11:05:14;98217.44;;;9.64;47.40
39954;BME280;25631;51.516;-0.470;2023-03-31T11:08:05;98220.71;;;9.91;47.08
39954;BME280;25631;51.516;-0.470;2023-03-31T11:10:57;98220.99;;;9.86;47.19
39954;BME280;25631;51.516;-0.470;2023-03-31T11:13:43;98228.85;;;9.73;47.39
39954;BME280;25631;51.516;-0.470;2023-03-31T11:16:29;98236.08;;;10.12;47.11
39954;BME280;25631;51.516;-0.470;2023-03-31T11:19:18;98240.16;;;10.14;46.90
39954;BME280;25631;51.516;-0.470;2023-03-31T11:22:04;98241.89;;;10.15;47.13
39954;BME280;25631;51.516;-0.470;2023-03-31T11:25:01;98256.42;;;9.47;46.96
39954;BME280;25631;51.516;-0.470;2023-03-31T11:27:54;98259.62;;;9.95;46.66
39954;BME280;25631;51.516;-0.470;2023-03-31T11:30:37;98261.08;;;9.96;46.85
39954;BME280;25631;51.516;-0.470;2023-03-31T11:33:27;98270.88;;;10.07;46.43
39954;BME280;25631;51.516;-0.470;2023-03-31T11:36:18;98274.25;;;10.13;46.47
39954;BME280;25631;51.516;-0.470;2023-03-31T11:39:14;98274.28;;;10.37;46.37
39954;BME280;25631;51.516;-0.470;2023-03-31T11:41:59;98281.32;;;10.41;46.50
39954;BME280;25631;51.516;-0.470;2023-03-31T11:44:40;98278.91;;;10.25;46.47
39954;BME280;25631;51.516;-0.470;2023-03-31T11:47:21;98292.86;;;10.59;46.46
39954;BME280;25631;51.516;-0.470;2023-03-31T11:50:03;98306.00;;;10.23;46.47
39954;BME280;25631;51.516;-0.470;2023-03-31T11:52:49;98309.54;;;10.81;46.41
39954;BME280;25631;51.516;-0.470;2023-03-31T11:55:29;98320.95;;;10.50;46.57
39954;BME280;25631;51.516;-0.470;2023-03-31T11:58:11;98318.35;;;10.45;46.43
39954;BME280;25631;51.516;-0.470;2023-03-31T12:00:54;98330.75;;;10.95;46.72
39954;BME280;25631;51.516;-0.470;2023-03-31T12:03:39;98330.94;;;10.77;46.79
39954;BME280;25631;51.516;-0.470;2023-03-31T12:06:19;98333.29;;;11.10;46.81
39954;BME280;25631;51.516;-0.470;2023-03-31T12:09:05;98336.48;;;10.91;46.69
39954;BME280;25631;51.516;-0.470;2023-03-31T12:11:47;98347.36;;;11.15;46.20
39954;BME280;25631;51.516;-0.470;2023-03-31T12:14:32;98351.87;;;11.13;45.68
39954;BME280;25631;51.516;-0.470;2023-03-31T12:17:11;98356.69;;;10.88;45.46
39954;BME280;25631;51.516;-0.470;2023-03-31T12:19:50;98361.85;;;11.08;44.66
39954;BME280;25631;51.516;-0.470;2023-03-31T12:22:30;98361.80;;;11.36;44.77
39954;BME280;25631;51.516;-0.470;2023-03-31T12:25:11;98363.17;;;11.24;44.07
39954;BME280;25631;51.516;-0.470;2023-03-31T12:27:48;98380.58;;;11.35;43.66
39954;BME280;25631;51.516;-0.470;2023-03-31T12:30:29;98369.92;;;11.43;43.74
39954;BME280;25631;51.516;-0.470;2023-03-31T12:33:13;98367.51;;;11.58;43.51
39954;BME280;25631;51.516;-0.470;2023-03-31T12:36:02;98377.94;;;11.51;44.15
39954;BME280;25631;51.516;-0.470;2023-03-31T12:38:54;98374.03;;;11.54;44.54
39954;BME280;25631;51.516;-0.470;2023-03-31T12:41:39;98370.48;;;11.63;43.73
39954;BME280;25631;51.516;-0.470;2023-03-31T12:44:28;98383.01;;;11.29;43.71
39954;BME280;25631;51.516;-0.470;2023-03-31T12:47:27;98383.72;;;11.98;43.78
39954;BME280;25631;51.516;-0.470;2023-03-31T12:50:50;98384.66;;;12.41;42.69
39954;BME280;25631;51.516;-0.470;2023-03-31T12:53:34;98388.84;;;12.41;42.09
39954;BME280;25631;51.516;-0.470;2023-03-31T12:56:14;98384.32;;;12.30;42.34
39954;BME280;25631;51.516;-0.470;2023-03-31T12:58:51;98390.94;;;12.01;42.29
39954;BME280;25631;51.516;-0.470;2023-03-31T13:01:28;98398.91;;;11.73;42.37
39954;BME280;25631;51.516;-0.470;2023-03-31T13:04:16;98392.47;;;11.78;42.89
39954;BME280;25631;51.516;-0.470;2023-03-31T13:06:55;98409.98;;;11.28;42.55
39954;BME280;25631;51.516;-0.470;2023-03-31T13:09:48;98413.73;;;11.51;42.71
39954;BME280;25631;51.516;-0.470;2023-03-31T13:12:27;98416.59;;;11.51;42.93
39954;BME280;25631;51.516;-0.470;2023-03-31T13:15:05;98426.12;;;11.26;43.16
39954;BME280;25631;51.516;-0.470;2023-03-31T13:17:55;98434.95;;;11.57;43.25
39954;BME280;25631;51.516;-0.470;2023-03-31T13:20:34;98437.04;;;11.14;43.82
39954;BME280;25631;51.516;-0.470;2023-03-31T13:23:16;98440.84;;;10.81;44.14
39954;BME280;25631;51.516;-0.470;2023-03-31T13:25:55;98454.73;;;11.24;44.63
39954;BME280;25631;51.516;-0.470;2023-03-31T13:28:37;98457.36;;;11.13;45.03
39954;BME280;25631;51.516;-0.470;2023-03-31T13:31:14;98475.58;;;10.89;45.25
39954;BME280;25631;51.516;-0.470;2023-03-31T13:33:53;98486.91;;;10.73;45.60
39954;BME280;25631;51.516;-0.470;2023-03-31T13:36:56;98484.20;;;10.69;45.32
39954;BME280;25631;51.516;-0.470;2023-03-31T13:40:54;98493.89;;;10.48;45.01
39954;BME280;25631;51.516;-0.470;2023-03-31T13:45:02;98506.49;;;10.47;45.03
39954;BME280;25631;51.516;-0.470;2023-03-31T13:47:52;98513.28;;;10.30;45.04
39954;BME280;25631;51.516;-0.470;2023-03-31T13:50:38;98517.46;;;10.49;44.90
39954;BME280;25631;51.516;-0.470;2023-03-31T13:53:31;98522.33;;;10.38;45.04
39954;BME280;25631;51.516;-0.470;2023-03-31T13:56:25;98527.28;;;10.41;45.15
39954;BME280;25631;51.516;-0.470;2023-03-31T13:59:19;98532.78;;;10.60;45.39
39954;BME280;25631;51.516;-0.470;2023-03-31T14:02:24;98539.38;;;10.31;45.22
39954;BME280;25631;51.516;-0.470;2023-03-31T14:05:27;98551.36;;;10.58;45.46
39954;BME280;25631;51.516;-0.470;2023-03-31T14:08:09;98549.64;;;10.61;45.35
39954;BME280;25631;51.516;-0.470;2023-03-31T14:10:46;98562.74;;;10.73;45.25
39954;BME280;25631;51.516;-0.470;2023-03-31T14:13:24;98573.95;;;10.68;45.43
39954;BME280;25631;51.516;-0.470;2023-03-31T14:16:00;98575.52;;;10.69;45.66
39954;BME280;25631;51.516;-0.470;2023-03-31T14:18:40;98582.49;;;10.21;45.80